createdAt,value
2023-04-16T00:01:15.562Z,12.88
2023-04-16T00:03:42.225Z,12.68
2023-04-16T00:06:11.062Z,12.63
2023-04-16T00:08:37.501Z,12.10
2023-04-16T00:11:05.633Z,12.20
2023-04-16T00:13:32.551Z,13.63
2023-04-16T00:15:59.170Z,12.93
2023-04-16T00:18:26.138Z,13.00
2023-04-16T00:20:53.405Z,13.07
2023-04-16T00:23:20.664Z,14.90
2023-04-16T00:25:47.290Z,13.05
2023-04-16T00:28:13.865Z,13.00
2023-04-16T00:30:40.500Z,12.70
2023-04-16T00:33:07.055Z,12.48
2023-04-16T00:35:33.466Z,12.82
2023-04-16T00:37:59.913Z,11.68
2023-04-16T00:40:30.116Z,10.82
2023-04-16T00:42:56.674Z,12.35
2023-04-16T00:45:23.412Z,11.40
2023-04-16T00:47:50.042Z,12.02
2023-04-16T00:50:17.688Z,10.73
2023-04-16T00:52:47.260Z,11.57
2023-04-16T00:55:15.050Z,11.60
2023-04-16T00:57:41.605Z,10.95
2023-04-16T01:00:08.734Z,11.80
2023-04-16T01:02:35.539Z,11.63
2023-04-16T01:05:03.305Z,10.30
2023-04-16T01:07:29.773Z,12.18
2023-04-16T01:09:56.504Z,11.63
2023-04-16T01:12:23.381Z,10.73
2023-04-16T01:14:50.071Z,9.32
2023-04-16T01:17:16.624Z,8.82
2023-04-16T01:19:43.060Z,9.10
2023-04-16T01:22:09.744Z,9.77
2023-04-16T01:24:36.585Z,8.82
2023-04-16T01:27:03.129Z,9.43
2023-04-16T01:29:29.620Z,9.40
2023-04-16T01:31:57.676Z,10.10
2023-04-16T01:34:36.080Z,9.18
2023-04-16T01:37:04.044Z,9.77
2023-04-16T01:39:30.518Z,9.52
2023-04-16T01:41:57.639Z,9.90
2023-04-16T01:44:24.157Z,9.88
2023-04-16T01:46:50.599Z,9.43
2023-04-16T01:49:17.224Z,10.00
2023-04-16T01:51:43.951Z,10.15
2023-04-16T01:54:10.578Z,10.45
2023-04-16T01:56:37.058Z,10.85
2023-04-16T01:59:03.619Z,10.18
2023-04-16T02:01:36.022Z,10.40
2023-04-16T02:04:03.543Z,11.45
2023-04-16T02:06:31.522Z,11.20
2023-04-16T02:08:58.005Z,11.27
2023-04-16T02:11:26.327Z,9.95
2023-04-16T02:13:53.149Z,10.15
2023-04-16T02:16:19.777Z,10.40
2023-04-16T02:18:56.232Z,10.38
2023-04-16T02:21:23.914Z,9.85
2023-04-16T02:23:51.721Z,9.82
2023-04-16T02:26:22.674Z,9.95
2023-04-16T02:28:49.939Z,9.60
2023-04-16T02:31:19.586Z,10.82
2023-04-16T02:33:47.643Z,11.30
2023-04-16T02:36:14.543Z,12.38
2023-04-16T02:38:41.173Z,11.35
2023-04-16T02:41:08.022Z,11.27
2023-04-16T02:43:34.559Z,12.32
2023-04-16T02:46:01.841Z,12.60
2023-04-16T02:48:28.392Z,12.95
2023-04-16T02:50:54.884Z,12.98
2023-04-16T02:53:21.529Z,13.35
2023-04-16T02:55:55.759Z,13.05
2023-04-16T02:58:24.735Z,13.18
2023-04-16T03:00:52.392Z,14.35
2023-04-16T03:03:19.383Z,11.85
2023-04-16T03:05:45.989Z,12.88
2023-04-16T03:08:12.570Z,12.15
2023-04-16T03:10:39.154Z,13.02
2023-04-16T03:13:05.695Z,13.02
2023-04-16T03:15:32.216Z,12.98
2023-04-16T03:17:59.309Z,12.40
2023-04-16T03:20:26.192Z,11.48
2023-04-16T03:22:53.159Z,12.95
2023-04-16T03:25:19.808Z,12.23
2023-04-16T03:27:46.304Z,12.13
2023-04-16T03:30:14.925Z,12.27
2023-04-16T03:32:41.902Z,11.77
2023-04-16T03:35:09.672Z,12.10
2023-04-16T03:37:37.118Z,12.63
2023-04-16T03:40:05.789Z,13.55
2023-04-16T03:42:32.550Z,12.35
2023-04-16T03:44:59.407Z,11.40
2023-04-16T03:47:26.348Z,11.57
2023-04-16T03:49:56.291Z,11.10
2023-04-16T03:52:22.781Z,12.48
2023-04-16T03:54:49.254Z,12.52
2023-04-16T03:57:24.298Z,10.20
2023-04-16T03:59:51.480Z,10.43
2023-04-16T04:02:18.557Z,10.00
2023-04-16T04:04:45.266Z,9.73
2023-04-16T04:07:11.828Z,9.98
2023-04-16T04:09:38.770Z,10.23
2023-04-16T04:12:05.271Z,9.43
2023-04-16T04:14:33.022Z,10.55
2023-04-16T04:16:59.969Z,9.13
2023-04-16T04:19:26.381Z,9.50
2023-04-16T04:21:52.937Z,9.93
2023-04-16T04:24:19.401Z,8.88
2023-04-16T04:26:46.139Z,9.80
2023-04-16T04:29:13.878Z,9.95
2023-04-16T04:31:40.823Z,10.13
2023-04-16T04:34:07.716Z,10.75
2023-04-16T04:36:34.386Z,10.88
2023-04-16T04:39:01.365Z,10.82
2023-04-16T04:41:28.066Z,10.20
2023-04-16T04:43:54.539Z,10.50
2023-04-16T04:46:21.258Z,9.93
2023-04-16T04:48:47.777Z,11.30
2023-04-16T04:51:16.188Z,12.15
2023-04-16T04:53:43.852Z,15.50
2023-04-16T04:56:12.641Z,16.50
2023-04-16T04:58:40.968Z,17.35
2023-04-16T05:01:07.452Z,18.08
2023-04-16T05:03:34.014Z,16.80
2023-04-16T05:06:00.690Z,19.05
2023-04-16T05:08:27.182Z,16.05
2023-04-16T05:10:53.642Z,16.23
2023-04-16T05:13:20.070Z,16.75
2023-04-16T05:15:46.717Z,17.20
2023-04-16T05:18:13.150Z,19.25
2023-04-16T05:20:39.663Z,18.65
2023-04-16T05:23:06.095Z,21.20
2023-04-16T05:25:32.585Z,19.60
2023-04-16T05:27:59.082Z,19.70
2023-04-16T05:30:25.507Z,19.83
2023-04-16T05:32:51.900Z,18.60
2023-04-16T05:35:18.577Z,18.52
2023-04-16T05:37:45.207Z,21.73
2023-04-16T05:40:14.019Z,19.77
2023-04-16T05:42:40.506Z,19.77
2023-04-16T05:45:07.462Z,19.58
2023-04-16T05:47:33.908Z,17.95
2023-04-16T05:50:00.344Z,17.42
2023-04-16T05:52:26.933Z,18.58
2023-04-16T05:54:53.491Z,19.23
2023-04-16T05:57:19.964Z,18.20
2023-04-16T05:59:46.392Z,18.67
2023-04-16T06:02:12.962Z,17.80
2023-04-16T06:04:39.455Z,20.13
2023-04-16T06:07:06.198Z,20.17
2023-04-16T06:09:32.660Z,19.83
2023-04-16T06:11:59.712Z,21.10
2023-04-16T06:14:26.161Z,19.38
2023-04-16T06:16:52.604Z,19.27
2023-04-16T06:19:19.181Z,20.52
2023-04-16T06:21:45.860Z,18.73
2023-04-16T06:24:13.150Z,19.85
2023-04-16T06:26:39.743Z,19.27
2023-04-16T06:29:06.202Z,19.33
2023-04-16T06:31:32.843Z,18.85
2023-04-16T06:33:59.266Z,18.48
2023-04-16T06:36:27.508Z,18.23
2023-04-16T06:38:53.942Z,18.95
2023-04-16T06:41:22.693Z,19.10
2023-04-16T06:43:49.453Z,17.65
2023-04-16T06:46:15.962Z,17.73
2023-04-16T06:48:42.517Z,19.25
2023-04-16T06:51:09.080Z,17.92
2023-04-16T06:53:37.524Z,16.98
2023-04-16T06:56:04.587Z,16.35
2023-04-16T06:58:31.116Z,17.73
2023-04-16T07:00:57.753Z,17.52
2023-04-16T07:03:24.489Z,17.40
2023-04-16T07:05:51.277Z,17.63
2023-04-16T07:08:17.765Z,16.33
2023-04-16T07:10:44.471Z,16.63
2023-04-16T07:13:11.056Z,16.17
2023-04-16T07:15:37.540Z,13.95
2023-04-16T07:18:04.275Z,15.75
2023-04-16T07:20:30.753Z,14.10
2023-04-16T07:22:59.234Z,13.80
2023-04-16T07:25:26.851Z,14.32
2023-04-16T07:27:53.367Z,15.23
2023-04-16T07:30:19.767Z,14.48
2023-04-16T07:32:46.372Z,14.02
2023-04-16T07:35:12.830Z,14.95
2023-04-16T07:37:39.263Z,14.68
2023-04-16T07:40:06.841Z,14.15
2023-04-16T07:42:33.322Z,13.85
2023-04-16T07:44:59.737Z,13.68
2023-04-16T07:47:27.103Z,14.65
2023-04-16T07:49:53.809Z,14.77
2023-04-16T07:52:20.404Z,15.13
2023-04-16T07:54:47.075Z,14.02
2023-04-16T07:57:13.552Z,14.80
2023-04-16T07:59:40.124Z,14.43
2023-04-16T08:02:07.230Z,13.95
2023-04-16T08:04:33.816Z,13.65
2023-04-16T08:07:00.539Z,12.27
2023-04-16T08:09:28.480Z,13.00
2023-04-16T08:11:54.997Z,13.23
2023-04-16T08:14:21.468Z,13.57
2023-04-16T08:16:47.881Z,12.88
2023-04-16T08:19:14.312Z,13.30
2023-04-16T08:21:40.929Z,11.90
2023-04-16T08:24:07.400Z,12.70
2023-04-16T08:26:33.813Z,13.23
2023-04-16T08:29:00.268Z,12.85
2023-04-16T08:31:26.944Z,12.80
2023-04-16T08:33:53.481Z,11.90
2023-04-16T08:36:19.906Z,12.80
2023-04-16T08:38:46.648Z,12.48
2023-04-16T08:41:13.519Z,11.40
2023-04-16T08:43:44.703Z,11.60
2023-04-16T08:46:12.158Z,12.50
2023-04-16T08:48:38.922Z,11.85
2023-04-16T08:51:09.775Z,12.75
2023-04-16T08:53:47.600Z,13.03
2023-04-16T08:56:15.755Z,12.00
2023-04-16T08:58:42.304Z,11.63
2023-04-16T09:01:11.252Z,13.25
2023-04-16T09:03:37.970Z,12.38
2023-04-16T09:06:04.986Z,11.30
2023-04-16T09:08:32.172Z,11.50
2023-04-16T09:10:59.583Z,11.73
2023-04-16T09:13:26.776Z,13.18
2023-04-16T09:15:54.383Z,13.00
2023-04-16T09:18:21.380Z,11.57
2023-04-16T09:20:52.169Z,12.32
2023-04-16T09:23:18.615Z,12.90
2023-04-16T09:25:45.141Z,11.95
2023-04-16T09:28:11.731Z,12.20
2023-04-16T09:30:38.358Z,15.77
2023-04-16T09:33:22.215Z,11.55
2023-04-16T09:35:50.764Z,14.25
2023-04-16T09:38:17.544Z,13.40
2023-04-16T09:40:44.183Z,11.65
2023-04-16T09:43:14.147Z,13.23
2023-04-16T09:45:54.856Z,12.10
2023-04-16T09:48:32.703Z,11.52
2023-04-16T09:51:00.284Z,12.07
2023-04-16T09:53:31.415Z,11.95
2023-04-16T09:55:59.803Z,13.63
2023-04-16T09:58:26.643Z,12.55
2023-04-16T10:01:00.850Z,12.38
2023-04-16T10:03:32.013Z,11.65
2023-04-16T10:06:06.849Z,10.93
2023-04-16T10:08:33.327Z,13.98
2023-04-16T10:10:59.859Z,12.73
2023-04-16T10:13:31.104Z,11.30
2023-04-16T10:15:57.884Z,12.38
2023-04-16T10:18:24.591Z,12.20
2023-04-16T10:20:51.166Z,11.30
2023-04-16T10:23:19.358Z,10.93
2023-04-16T10:25:47.624Z,11.85
2023-04-16T10:28:15.283Z,11.25
2023-04-16T10:30:48.249Z,12.32
2023-04-16T10:33:15.136Z,11.27
2023-04-16T10:35:41.597Z,10.65
2023-04-16T10:38:27.920Z,9.57
2023-04-16T10:41:03.901Z,10.43
2023-04-16T10:43:31.470Z,9.52
2023-04-16T10:45:58.042Z,10.13
2023-04-16T10:48:27.420Z,9.98
2023-04-16T10:50:57.677Z,9.35
2023-04-16T10:53:26.721Z,9.43
2023-04-16T10:55:57.725Z,9.65
2023-04-16T10:58:28.825Z,9.02
2023-04-16T11:00:55.223Z,10.20
2023-04-16T11:03:21.891Z,8.55
2023-04-16T11:05:48.555Z,13.23
2023-04-16T11:08:16.415Z,8.63
2023-04-16T11:10:42.854Z,8.00
2023-04-16T11:13:12.812Z,8.65
2023-04-16T11:15:39.334Z,8.82
2023-04-16T11:18:06.910Z,8.32
2023-04-16T11:20:33.619Z,7.25
2023-04-16T11:23:00.268Z,7.75
2023-04-16T11:25:33.955Z,8.25
2023-04-16T11:28:02.267Z,8.48
2023-04-16T11:30:36.551Z,7.25
2023-04-16T11:33:08.841Z,7.40
2023-04-16T11:35:35.585Z,8.07
2023-04-16T11:38:02.221Z,6.70
2023-04-16T11:40:31.778Z,6.43
2023-04-16T11:43:14.529Z,6.20
2023-04-16T11:45:56.936Z,5.10
2023-04-16T11:48:23.345Z,5.15
2023-04-16T11:50:57.081Z,4.82
2023-04-16T11:53:23.762Z,4.30
2023-04-16T11:55:50.439Z,4.25
2023-04-16T11:58:17.018Z,5.25
2023-04-16T12:00:45.070Z,5.10
2023-04-16T12:03:11.828Z,5.40
2023-04-16T12:05:39.615Z,4.55
2023-04-16T12:08:08.408Z,4.70
2023-04-16T12:10:53.642Z,5.53
2023-04-16T12:13:20.259Z,4.95
2023-04-16T12:15:49.071Z,5.20
2023-04-16T12:18:16.557Z,5.22
2023-04-16T12:20:44.109Z,4.90
2023-04-16T12:23:27.997Z,5.85
2023-04-16T12:25:55.194Z,5.00
2023-04-16T12:28:29.900Z,5.15
2023-04-16T12:30:56.530Z,4.30
2023-04-16T12:33:23.189Z,4.50
2023-04-16T12:35:50.522Z,5.43
2023-04-16T12:38:17.334Z,5.00
2023-04-16T12:40:44.081Z,4.75
2023-04-16T12:43:10.711Z,5.45
2023-04-16T12:45:39.395Z,5.82
2023-04-16T12:48:06.485Z,5.05
2023-04-16T12:50:33.151Z,5.32
2023-04-16T12:52:59.726Z,5.43
2023-04-16T12:55:26.161Z,5.50
2023-04-16T12:57:53.023Z,6.47
2023-04-16T13:00:20.400Z,6.05
2023-04-16T13:02:47.436Z,6.40
2023-04-16T13:05:16.443Z,6.47
2023-04-16T13:07:43.092Z,6.20
2023-04-16T13:10:09.986Z,6.18
2023-04-16T13:12:36.682Z,6.53
2023-04-16T13:15:03.300Z,6.88
2023-04-16T13:17:29.781Z,7.18
2023-04-16T13:19:56.193Z,6.70
2023-04-16T13:22:23.270Z,7.00
2023-04-16T13:24:49.849Z,7.85
2023-04-16T13:27:16.819Z,7.45
2023-04-16T13:29:43.338Z,7.57
2023-04-16T13:32:09.840Z,7.20
2023-04-16T13:34:36.528Z,7.35
2023-04-16T13:37:03.040Z,7.53
2023-04-16T13:39:29.523Z,8.20
2023-04-16T13:41:55.974Z,7.88
2023-04-16T13:44:22.423Z,8.20
2023-04-16T13:46:49.674Z,7.72
2023-04-16T13:49:16.194Z,9.73
2023-04-16T13:51:44.594Z,8.77
2023-04-16T13:54:11.051Z,9.00
2023-04-16T13:56:37.772Z,9.13
2023-04-16T13:59:04.180Z,8.93
2023-04-16T14:01:30.785Z,10.32
2023-04-16T14:03:57.276Z,9.98
2023-04-16T14:06:23.732Z,12.65
2023-04-16T14:08:50.280Z,9.85
2023-04-16T14:11:16.782Z,9.82
2023-04-16T14:13:43.326Z,9.50
2023-04-16T14:16:09.814Z,9.38
2023-04-16T14:18:40.948Z,9.93
2023-04-16T14:21:07.778Z,10.05
2023-04-16T14:23:34.276Z,11.25
2023-04-16T14:26:00.751Z,9.80
2023-04-16T14:28:27.166Z,11.77
2023-04-16T14:30:53.614Z,10.93
2023-04-16T14:33:20.099Z,11.45
2023-04-16T14:35:46.756Z,12.80
2023-04-16T14:38:13.234Z,12.18
2023-04-16T14:40:39.700Z,12.00
2023-04-16T14:43:07.326Z,12.18
2023-04-16T14:45:33.826Z,12.52
2023-04-16T14:48:00.452Z,14.30
2023-04-16T14:50:26.923Z,15.13
2023-04-16T14:52:54.484Z,14.52
2023-04-16T14:55:21.555Z,14.70
2023-04-16T14:57:47.952Z,17.45
2023-04-16T15:00:18.618Z,14.77
2023-04-16T15:02:47.163Z,16.13
2023-04-16T15:05:13.910Z,18.92
2023-04-16T15:07:40.404Z,15.85
2023-04-16T15:10:08.975Z,16.42
2023-04-16T15:12:35.473Z,16.75
2023-04-16T15:15:02.063Z,18.77
2023-04-16T15:17:28.606Z,19.60
2023-04-16T15:19:55.133Z,15.45
2023-04-16T15:22:21.623Z,15.38
2023-04-16T15:24:48.117Z,16.70
2023-04-16T15:27:14.709Z,16.48
2023-04-16T15:29:41.152Z,14.88
2023-04-16T15:32:07.565Z,15.90
2023-04-16T15:34:34.763Z,15.43
2023-04-16T15:37:01.199Z,16.77
2023-04-16T15:39:27.678Z,17.20
2023-04-16T15:42:01.175Z,18.73
2023-04-16T15:44:28.175Z,17.75
2023-04-16T15:46:54.674Z,18.15
2023-04-16T15:49:21.156Z,24.02
2023-04-16T15:51:47.616Z,19.38
2023-04-16T15:54:14.060Z,18.88
2023-04-16T15:56:40.595Z,17.48
2023-04-16T15:59:08.071Z,18.80
2023-04-16T16:01:34.754Z,17.55
2023-04-16T16:04:07.305Z,17.03
2023-04-16T16:06:34.267Z,18.45
2023-04-16T16:09:00.866Z,20.20
2023-04-16T16:11:27.533Z,20.30
2023-04-16T16:13:54.022Z,18.10
2023-04-16T16:16:21.642Z,22.20
2023-04-16T16:18:48.244Z,20.92
2023-04-16T16:21:14.764Z,19.55
2023-04-16T16:23:41.268Z,22.55
2023-04-16T16:26:07.701Z,22.13
2023-04-16T16:28:37.451Z,25.35
2023-04-16T16:31:07.224Z,20.30
2023-04-16T16:33:33.678Z,22.90
2023-04-16T16:36:00.159Z,23.08
2023-04-16T16:38:27.004Z,23.83
2023-04-16T16:40:53.474Z,22.23
2023-04-16T16:43:20.246Z,23.63
2023-04-16T16:45:47.121Z,21.50
2023-04-16T16:48:13.682Z,22.98
2023-04-16T16:50:40.190Z,22.85
2023-04-16T16:53:06.708Z,22.05
2023-04-16T16:55:33.360Z,23.85
2023-04-16T16:57:59.811Z,22.92
2023-04-16T17:00:26.276Z,22.92
2023-04-16T17:02:52.913Z,25.15
2023-04-16T17:05:19.880Z,22.50
2023-04-16T17:07:46.653Z,24.60
2023-04-16T17:10:20.106Z,25.55
2023-04-16T17:12:50.961Z,26.55
2023-04-16T17:15:20.555Z,24.93
2023-04-16T17:17:48.235Z,25.45
2023-04-16T17:20:15.510Z,25.90
2023-04-16T17:22:42.349Z,25.52
2023-04-16T17:25:09.115Z,24.48
2023-04-16T17:27:35.903Z,25.27
2023-04-16T17:30:05.246Z,26.45
2023-04-16T17:32:32.782Z,22.70
2023-04-16T17:35:00.942Z,22.58
2023-04-16T17:37:27.768Z,23.25
2023-04-16T17:39:54.291Z,22.33
2023-04-16T17:42:20.998Z,22.25
2023-04-16T17:44:47.612Z,23.35
2023-04-16T17:47:14.180Z,24.15
2023-04-16T17:49:40.696Z,23.67
2023-04-16T17:52:07.201Z,21.80
2023-04-16T17:54:33.666Z,22.08
2023-04-16T17:57:00.483Z,21.35
2023-04-16T17:59:27.306Z,20.80
2023-04-16T18:01:54.733Z,21.02
2023-04-16T18:04:21.540Z,22.02
2023-04-16T18:06:48.376Z,19.73
2023-04-16T18:09:15.398Z,20.77
2023-04-16T18:11:41.818Z,21.13
2023-04-16T18:14:09.867Z,19.80
2023-04-16T18:16:36.703Z,20.95
2023-04-16T18:19:03.163Z,19.83
2023-04-16T18:21:30.247Z,21.70
2023-04-16T18:23:56.896Z,19.55
2023-04-16T18:26:23.377Z,20.17
2023-04-16T18:28:49.815Z,20.17
2023-04-16T18:31:18.422Z,20.88
2023-04-16T18:33:56.534Z,20.63
2023-04-16T18:36:24.571Z,22.52
2023-04-16T18:39:01.061Z,22.38
2023-04-16T18:41:38.039Z,22.75
2023-04-16T18:44:04.561Z,21.75
2023-04-16T18:46:31.002Z,21.27
2023-04-16T18:48:58.996Z,19.75
2023-04-16T18:51:27.009Z,20.70
2023-04-16T18:53:53.510Z,21.05
2023-04-16T18:56:20.092Z,21.27
2023-04-16T18:58:47.759Z,20.88
2023-04-16T19:01:14.431Z,22.00
2023-04-16T19:03:41.052Z,23.38
2023-04-16T19:06:07.788Z,22.38
2023-04-16T19:08:34.191Z,22.13
2023-04-16T19:11:00.737Z,22.02
2023-04-16T19:13:27.184Z,22.48
2023-04-16T19:16:01.358Z,22.17
2023-04-16T19:18:27.908Z,21.95
2023-04-16T19:21:01.094Z,22.08
2023-04-16T19:23:28.161Z,22.98
2023-04-16T19:25:57.785Z,22.02
2023-04-16T19:28:24.990Z,22.80
2023-04-16T19:30:52.316Z,21.77
2023-04-16T19:33:19.359Z,20.50
2023-04-16T19:35:46.696Z,21.83
2023-04-16T19:38:13.205Z,21.38
2023-04-16T19:40:40.284Z,20.83
2023-04-16T19:43:06.784Z,19.83
2023-04-16T19:45:33.305Z,19.83
2023-04-16T19:47:59.875Z,20.55
2023-04-16T19:50:26.322Z,20.13
2023-04-16T19:52:52.793Z,18.90
2023-04-16T19:55:19.265Z,18.65
2023-04-16T19:57:48.020Z,17.73
2023-04-16T20:00:14.910Z,18.75
2023-04-16T20:02:41.518Z,18.98
2023-04-16T20:05:08.601Z,19.40
2023-04-16T20:07:35.240Z,18.50
2023-04-16T20:10:02.815Z,18.23
2023-04-16T20:12:29.319Z,20.58
2023-04-16T20:14:55.922Z,17.75
2023-04-16T20:17:22.335Z,20.65
2023-04-16T20:19:49.648Z,21.27
2023-04-16T20:22:18.222Z,19.58
2023-04-16T20:24:47.781Z,18.85
2023-04-16T20:27:15.127Z,17.83
2023-04-16T20:29:41.790Z,19.75
2023-04-16T20:32:08.335Z,20.35
2023-04-16T20:34:34.825Z,19.73
2023-04-16T20:37:01.233Z,19.42
2023-04-16T20:39:27.779Z,18.55
2023-04-16T20:41:56.953Z,21.30
2023-04-16T20:44:32.941Z,19.63
2023-04-16T20:46:59.607Z,18.67
2023-04-16T20:49:26.024Z,19.08
2023-04-16T20:51:52.524Z,17.83
2023-04-16T20:54:19.059Z,18.55
2023-04-16T20:56:45.881Z,17.65
2023-04-16T20:59:13.306Z,19.02
2023-04-16T21:01:39.910Z,18.48
2023-04-16T21:04:06.729Z,18.50
2023-04-16T21:06:38.282Z,19.77
2023-04-16T21:09:06.032Z,18.67
2023-04-16T21:11:34.592Z,18.55
2023-04-16T21:14:01.848Z,18.30
2023-04-16T21:16:28.680Z,18.27
2023-04-16T21:18:56.074Z,18.13
2023-04-16T21:21:23.350Z,18.75
2023-04-16T21:23:50.399Z,18.95
2023-04-16T21:26:17.116Z,19.38
2023-04-16T21:28:43.549Z,18.70
2023-04-16T21:31:10.021Z,18.58
2023-04-16T21:33:36.571Z,18.92
2023-04-16T21:36:03.117Z,18.60
2023-04-16T21:38:29.535Z,19.75
2023-04-16T21:40:56.699Z,19.73
2023-04-16T21:43:23.871Z,19.40
2023-04-16T21:45:55.974Z,18.65
2023-04-16T21:48:22.694Z,19.35
2023-04-16T21:50:58.039Z,18.73
2023-04-16T21:53:31.890Z,21.70
2023-04-16T21:55:58.610Z,20.70
2023-04-16T21:58:27.742Z,20.83
2023-04-16T22:00:54.309Z,21.45
2023-04-16T22:03:27.720Z,21.45
2023-04-16T22:06:01.419Z,22.20
2023-04-16T22:08:31.542Z,21.77
2023-04-16T22:10:59.260Z,21.20
2023-04-16T22:13:26.295Z,20.13
2023-04-16T22:15:53.534Z,20.60
2023-04-16T22:18:20.330Z,20.30
2023-04-16T22:20:50.840Z,21.02
2023-04-16T22:23:17.442Z,19.85
2023-04-16T22:25:43.984Z,20.00
2023-04-16T22:28:10.556Z,20.73
2023-04-16T22:30:37.043Z,21.33
2023-04-16T22:33:03.845Z,19.88
2023-04-16T22:35:30.526Z,22.35
2023-04-16T22:37:57.103Z,21.80
2023-04-16T22:40:23.593Z,20.02
2023-04-16T22:42:50.332Z,20.85
2023-04-16T22:45:16.864Z,20.65
2023-04-16T22:47:44.029Z,23.38
2023-04-16T22:50:10.721Z,22.00
2023-04-16T22:52:37.134Z,22.40
2023-04-16T22:55:03.829Z,22.42
2023-04-16T22:57:30.503Z,20.42
2023-04-16T22:59:57.252Z,22.50
2023-04-16T23:02:23.881Z,23.92
2023-04-16T23:04:50.362Z,22.30
2023-04-16T23:07:16.930Z,22.13
2023-04-16T23:09:43.378Z,22.15
2023-04-16T23:12:09.792Z,23.70
2023-04-16T23:14:36.880Z,20.38
2023-04-16T23:17:03.611Z,22.65
2023-04-16T23:19:31.157Z,20.45
2023-04-16T23:21:57.995Z,20.77
2023-04-16T23:24:24.704Z,21.35
2023-04-16T23:26:52.445Z,21.25
2023-04-16T23:29:20.535Z,21.40
2023-04-16T23:31:47.191Z,20.35
2023-04-16T23:34:13.760Z,21.73
2023-04-16T23:36:40.780Z,21.23
2023-04-16T23:39:07.373Z,20.60
2023-04-16T23:41:34.180Z,20.20
2023-04-16T23:44:00.739Z,20.52
2023-04-16T23:46:27.589Z,20.52
2023-04-16T23:48:55.175Z,22.08
2023-04-16T23:51:21.962Z,20.80
2023-04-16T23:53:48.393Z,21.50
2023-04-16T23:56:15.867Z,21.67
2023-04-16T23:58:42.374Z,20.65
